Hlavní strana
METAR-TAF:

METAR-TAF

Letiště :

Moskva, Rusko

zeměpisná šířka: 55-30-42N, zeměpisná délka: 037-30-26E, výška: 173 m

Aktuální stav počasí

Zpráva byla vytvořena před 19 minutami, v 17:00 UTC
Jihojihozápadní vítr 2 kt
Teplota -19°C
Vlhkost vzduchu 84%
Tlak 1016 hPa
Viditelnost: 6000 m
slabé sněžení

METAR: UUMO 181700Z 21001MPS 6000 -SN NSC M19/M21 Q1016 R25/820545 NOSIG RMK QFE747/0996

Čas: 20:19 (17:19 UTC)

Předpověď počasí

Zpráva byla vytvořena před 3 hodinami a 23 minutami, v 13:56 UTC
Předpověď platná od 18 v 15 UTC do 18 v 24 UTC
vítr z různých směrů 2 kt
Viditelnost: 3100 m
Polojasno ve výšce 300 ft
kouřmo
Dočasný
od 18 v 16 UTC do 18 v 24 UTC
Viditelnost: 1100 m
Oblačno až skoro zataženo ve výšce 200 ft
sníh

TAF: UUMO 181356Z 1815/1824 VRB01MPS 3100 BR SCT003 TEMPO 1816/1824 1100 SN BKN002

Stav a předpovědi počasí z více než 4 000 letišť (zprávy METAR a TAF).

Červené a žluté tečky na mapě představují dostupné meteorologické stanice.

Když kurzor umístíte na tečku, zobrazí se název stanice.

Pak kliknutím zobrazíte stav a předpověď počasí.

Chcete-li změnit mapu, kliknutím na zelené tlačítko se znaménkem +mapu přiblížíte, kliknutím na zelené tlačítko se znaménkem – mapu oddálíte a kliknutím na zelené šipky přejdete na sousední mapy.


METAR-TAF: